Time;durP1;ratioP1;P1;durP2;ratioP2;P2;SDS_P1;SDS_P2;PMS_P1;PMS_P2;Temp;Humidity;BMP_temperature;BMP_pressure;BME280_temperature;BME280_humidity;BME280_pressure;Samples;Min_cycle;Max_cycle;Signal;HPM_P1;HPM_P2
2022/08/29 00:00:36;;;;;;;11.57;9.13;;;;;;;;;;6278607;28;20045;-62
2022/08/29 00:03:38;;;;;;;10.95;9.82;;;;;;;;;;6279396;28;20057;-63
2022/08/29 00:06:41;;;;;;;13.75;8.68;;;;;;;;;;6280064;28;20040;-61
2022/08/29 00:09:42;;;;;;;;;;;;;;;;;;6279940;28;20052;-62
2022/08/29 00:12:44;;;;;;;10.07;7.70;;;;;;;;;;6279861;28;20189;-63
2022/08/29 00:15:46;;;;;;;12.02;7.53;;;;;;;;;;6277394;28;20270;-63
2022/08/29 00:18:48;;;;;;;7.22;6.10;;;;;;;;;;6281330;28;20057;-64
2022/08/29 00:21:51;;;;;;;7.07;6.38;;;;;;;;;;6278323;28;20099;-61
2022/08/29 00:24:52;;;;;;;6.18;5.53;;;;;;;;;;6279433;28;20263;-62
2022/08/29 00:27:54;;;;;;;6.30;5.22;;;;;;;;;;6279461;28;20044;-62
2022/08/29 00:30:56;;;;;;;6.90;5.30;;;;;;;;;;6276219;28;20040;-63
2022/08/29 00:33:57;;;;;;;6.63;4.95;;;;;;;;;;6279967;28;20319;-63
2022/08/29 00:37:00;;;;;;;8.23;5.20;;;;;;;;;;6278218;28;20068;-65
2022/08/29 00:40:04;;;;;;;7.00;5.63;;;;;;;;;;6278551;28;20048;-62
2022/08/29 00:43:06;;;;;;;6.53;5.43;;;;;;;;;;6278822;28;20059;-62
2022/08/29 00:46:26;;;;;;;7.45;5.22;;;;;;;;;;6281795;28;20045;-62
2022/08/29 00:49:32;;;;;;;8.57;5.57;;;;;;;;;;6279461;28;20052;-64
2022/08/29 00:52:38;;;;;;;8.10;6.32;;;;;;;;;;6279029;28;20131;-65
2022/08/29 00:55:41;;;;;;;9.27;6.50;;;;;;;;;;6278134;28;20049;-65
2022/08/29 00:58:44;;;;;;;6.53;5.93;;;;;;;;;;6277689;28;20389;-64
2022/08/29 01:01:46;;;;;;;9.55;7.18;;;;;;;;;;6277103;28;20412;-62
2022/08/29 01:04:48;;;;;;;8.38;6.55;;;;;;;;;;6277939;28;20390;-61
2022/08/29 01:07:52;;;;;;;6.95;6.25;;;;;;;;;;6277396;28;20099;-63
2022/08/29 01:14:12;;;;;;;11.38;8.68;;;;;;;;;;6279844;28;20336;-59
2022/08/29 01:17:18;;;;;;;12.63;7.88;;;;;;;;;;6277920;28;20352;-62
2022/08/29 01:20:24;;;;;;;8.55;7.40;;;;;;;;;;6277207;28;20053;-62
2022/08/29 01:23:32;;;;;;;11.68;8.02;;;;;;;;;;6278572;28;20065;-61
2022/08/29 01:26:35;;;;;;;9.75;7.18;;;;;;;;;;6278803;28;20049;-61
2022/08/29 01:29:37;;;;;;;10.27;7.72;;;;;;;;;;6275467;28;20049;-61
2022/08/29 01:32:39;;;;;;;9.52;6.82;;;;;;;;;;6276399;28;20072;-61
2022/08/29 01:35:41;;;;;;;8.02;6.50;;;;;;;;;;6277997;28;20056;-62
2022/08/29 01:38:43;;;;;;;6.18;5.57;;;;;;;;;;6277415;28;20250;-61
2022/08/29 01:41:45;;;;;;;7.10;5.78;;;;;;;;;;6277358;28;20052;-62
2022/08/29 01:44:51;;;;;;;7.22;5.60;;;;;;;;;;6275632;28;20049;-62
2022/08/29 01:47:52;;;;;;;9.15;5.78;;;;;;;;;;6279490;28;20068;-61
2022/08/29 01:50:56;;;;;;;6.82;5.50;;;;;;;;;;6277392;28;20061;-63
2022/08/29 01:53:58;;;;;;;6.53;5.45;;;;;;;;;;6275032;28;20114;-61
2022/08/29 01:57:01;;;;;;;6.88;5.25;;;;;;;;;;6277874;28;20267;-62
2022/08/29 02:00:04;;;;;;;5.85;4.65;;;;;;;;;;6276234;28;20052;-64
2022/08/29 02:03:06;;;;;;;;;;;;;;;;;;6278787;28;20059;-61
2022/08/29 02:06:08;;;;;;;4.65;4.07;;;;;;;;;;6276412;28;20218;-61
2022/08/29 02:09:10;;;;;;;9.43;4.50;;;;;;;;;;6275336;28;20071;-62
2022/08/29 02:12:13;;;;;;;7.03;3.92;;;;;;;;;;6277458;28;20057;-62
2022/08/29 02:15:17;;;;;;;;;;;;;;;;;;6280527;28;20282;-61
2022/08/29 02:18:20;;;;;;;5.45;4.80;;;;;;;;;;6276360;28;19924;-62
2022/08/29 02:21:23;;;;;;;6.57;5.18;;;;;;;;;;6280460;28;20048;-62
2022/08/29 02:24:25;;;;;;;6.40;5.22;;;;;;;;;;6277310;28;20045;-61
2022/08/29 02:27:28;;;;;;;8.13;5.25;;;;;;;;;;6276033;28;20048;-63
2022/08/29 02:30:29;;;;;;;;;;;;;;;;;;6277036;28;20057;-62
2022/08/29 02:33:31;;;;;;;5.22;4.72;;;;;;;;;;6276873;28;19967;-62
2022/08/29 02:36:33;;;;;;;7.95;5.82;;;;;;;;;;6275353;28;20045;-63
2022/08/29 02:39:34;;;;;;;8.00;5.57;;;;;;;;;;6277861;28;20045;-63
2022/08/29 02:42:37;;;;;;;6.07;5.47;;;;;;;;;;6275717;28;20041;-63
2022/08/29 02:45:40;;;;;;;;;;;;;;;;;;6278734;28;20052;-62
2022/08/29 02:48:43;;;;;;;9.52;5.30;;;;;;;;;;6275607;28;20199;-62
2022/08/29 02:51:45;;;;;;;7.53;5.38;;;;;;;;;;6276630;28;20048;-62
2022/08/29 02:54:47;;;;;;;6.38;5.68;;;;;;;;;;6276266;28;20082;-62
2022/08/29 02:57:51;;;;;;;7.90;5.28;;;;;;;;;;6274860;28;20068;-62
2022/08/29 03:00:53;;;;;;;6.90;5.18;;;;;;;;;;6272570;28;20053;-62
2022/08/29 03:03:55;;;;;;;6.37;5.20;;;;;;;;;;6275636;28;20048;-62
2022/08/29 03:06:56;;;;;;;7.95;5.47;;;;;;;;;;6278681;28;20044;-64
2022/08/29 03:09:58;;;;;;;8.48;5.45;;;;;;;;;;6275792;28;20279;-62
2022/08/29 03:13:01;;;;;;;5.95;4.90;;;;;;;;;;6276351;28;20056;-62
2022/08/29 03:16:03;;;;;;;6.38;5.22;;;;;;;;;;6275996;28;20311;-64
2022/08/29 03:19:05;;;;;;;5.63;5.13;;;;;;;;;;6277336;28;20072;-62
2022/08/29 03:22:07;;;;;;;8.15;5.43;;;;;;;;;;6276072;28;20259;-63
2022/08/29 03:25:11;;;;;;;5.78;4.80;;;;;;;;;;6276273;28;20045;-62
2022/08/29 03:28:14;;;;;;;9.10;5.85;;;;;;;;;;6274125;28;20049;-62
2022/08/29 03:31:15;;;;;;;6.68;6.00;;;;;;;;;;6275818;28;20056;-62
2022/08/29 03:34:17;;;;;;;6.00;4.93;;;;;;;;;;6274172;28;20045;-63
2022/08/29 03:37:18;;;;;;;11.73;5.78;;;;;;;;;;6276159;28;20208;-62
2022/08/29 03:40:20;;;;;;;8.20;4.93;;;;;;;;;;6276212;28;20406;-62
2022/08/29 03:43:24;;;;;;;7.70;4.40;;;;;;;;;;6276325;28;20410;-62
2022/08/29 03:46:26;;;;;;;4.88;4.10;;;;;;;;;;6274817;28;20056;-61
2022/08/29 03:49:27;;;;;;;5.22;4.32;;;;;;;;;;6274777;28;20049;-62
2022/08/29 03:52:29;;;;;;;5.05;4.38;;;;;;;;;;6273633;28;20355;-62
2022/08/29 03:55:31;;;;;;;4.68;3.90;;;;;;;;;;6274078;28;20064;-62
2022/08/29 03:58:34;;;;;;;5.72;3.75;;;;;;;;;;6275041;28;20053;-62
2022/08/29 04:01:35;;;;;;;;;;;;;;;;;;6273378;28;20362;-65
2022/08/29 04:07:59;;;;;;;5.28;4.10;;;;;;;;;;6276308;28;20040;-62
2022/08/29 04:11:02;;;;;;;6.35;4.22;;;;;;;;;;6275294;28;20057;-62
2022/08/29 04:14:05;;;;;;;4.50;3.50;;;;;;;;;;6273703;28;20053;-61
2022/08/29 04:17:09;;;;;;;5.07;4.18;;;;;;;;;;6271972;28;20327;-61
2022/08/29 04:20:12;;;;;;;7.47;4.63;;;;;;;;;;6274607;28;20044;-61
2022/08/29 04:23:14;;;;;;;8.95;4.93;;;;;;;;;;6271974;28;20052;-63
2022/08/29 04:26:17;;;;;;;7.22;4.65;;;;;;;;;;6273802;28;20057;-64
2022/08/29 04:29:20;;;;;;;5.43;4.15;;;;;;;;;;6275767;28;20057;-65
2022/08/29 04:32:22;;;;;;;4.18;3.78;;;;;;;;;;6272800;28;20063;-65
2022/08/29 04:35:24;;;;;;;7.03;4.53;;;;;;;;;;6276699;28;20102;-64
2022/08/29 04:38:25;;;;;;;6.65;4.05;;;;;;;;;;6275419;28;20271;-64
2022/08/29 04:41:27;;;;;;;4.65;4.10;;;;;;;;;;6283766;28;20302;-64
2022/08/29 04:44:30;;;;;;;5.32;4.25;;;;;;;;;;6279138;28;20052;-65
2022/08/29 04:47:32;;;;;;;6.78;4.65;;;;;;;;;;6279577;28;20059;-63
2022/08/29 04:50:33;;;;;;;5.18;4.15;;;;;;;;;;6274574;28;20323;-62
2022/08/29 04:53:35;;;;;;;5.72;4.30;;;;;;;;;;6278599;28;20061;-61
2022/08/29 04:56:37;;;;;;;6.18;4.63;;;;;;;;;;6278541;28;20049;-61
2022/08/29 04:59:40;;;;;;;9.30;4.32;;;;;;;;;;6280989;28;20112;-61
2022/08/29 05:02:42;;;;;;;5.97;4.40;;;;;;;;;;6278301;28;20048;-61
2022/08/29 05:05:44;;;;;;;5.47;4.38;;;;;;;;;;6276954;28;20057;-61
2022/08/29 05:08:46;;;;;;;7.20;4.25;;;;;;;;;;6276715;28;20053;-60
2022/08/29 05:11:48;;;;;;;10.00;4.57;;;;;;;;;;6277603;28;20072;-61
2022/08/29 05:14:51;;;;;;;8.05;4.25;;;;;;;;;;6273641;28;20053;-61
2022/08/29 05:17:53;;;;;;;9.13;4.38;;;;;;;;;;6277752;28;20102;-60
2022/08/29 05:20:55;;;;;;;6.00;4.05;;;;;;;;;;6279528;28;20299;-61
2022/08/29 05:23:56;;;;;;;5.13;4.63;;;;;;;;;;6276430;28;20052;-61
2022/08/29 05:26:58;;;;;;;7.75;4.88;;;;;;;;;;6278703;28;20056;-62
2022/08/29 05:30:02;;;;;;;7.50;5.05;;;;;;;;;;6277504;28;20086;-60
2022/08/29 05:33:04;;;;;;;6.88;4.68;;;;;;;;;;6278363;28;20064;-62
2022/08/29 05:36:06;;;;;;;10.95;4.80;;;;;;;;;;6278334;28;20044;-62
2022/08/29 05:39:08;;;;;;;6.30;4.85;;;;;;;;;;6278800;28;20045;-61
2022/08/29 05:42:11;;;;;;;7.00;4.82;;;;;;;;;;6275582;28;20063;-60
2022/08/29 05:45:14;;;;;;;7.65;4.97;;;;;;;;;;6276715;28;20075;-60
2022/08/29 05:48:17;;;;;;;7.22;5.72;;;;;;;;;;6276599;28;20052;-60
2022/08/29 05:51:20;;;;;;;6.97;4.88;;;;;;;;;;6279205;28;20116;-60
2022/08/29 05:54:22;;;;;;;8.55;4.85;;;;;;;;;;6275539;28;20049;-60
2022/08/29 05:57:24;;;;;;;9.43;6.22;;;;;;;;;;6279082;28;20208;-61
2022/08/29 06:00:27;;;;;;;10.20;6.20;;;;;;;;;;6276632;28;20072;-60
2022/08/29 06:03:28;;;;;;;12.27;6.55;;;;;;;;;;6276923;28;20095;-61
2022/08/29 06:06:30;;;;;;;10.85;7.22;;;;;;;;;;6276796;28;20336;-61
2022/08/29 06:09:32;;;;;;;11.43;7.53;;;;;;;;;;6276473;28;20053;-63
2022/08/29 06:12:34;;;;;;;9.15;6.97;;;;;;;;;;6273635;28;20041;-62
2022/08/29 06:15:37;;;;;;;9.32;6.82;;;;;;;;;;6277659;28;20052;-62
2022/08/29 06:18:39;;;;;;;12.73;6.55;;;;;;;;;;6276000;28;20087;-62
2022/08/29 06:21:41;;;;;;;14.10;7.20;;;;;;;;;;6278178;28;20053;-62
2022/08/29 06:24:44;;;;;;;10.63;7.00;;;;;;;;;;6276365;28;20045;-62
2022/08/29 06:27:45;;;;;;;8.05;7.25;;;;;;;;;;6277408;28;20052;-62
2022/08/29 06:30:48;;;;;;;9.13;7.60;;;;;;;;;;6274853;28;20049;-62
2022/08/29 06:33:51;;;;;;;9.10;7.15;;;;;;;;;;6274369;28;20091;-65
2022/08/29 06:36:52;;;;;;;9.63;7.33;;;;;;;;;;6278206;28;20045;-62
2022/08/29 06:39:54;;;;;;;8.80;6.70;;;;;;;;;;6278165;28;20470;-63
2022/08/29 06:42:55;;;;;;;10.18;7.75;;;;;;;;;;6278596;28;20049;-63
2022/08/29 06:45:58;;;;;;;10.32;6.53;;;;;;;;;;6275546;28;20044;-62
2022/08/29 06:49:01;;;;;;;6.88;6.03;;;;;;;;;;6277050;28;20056;-63
2022/08/29 06:52:04;;;;;;;9.73;6.00;;;;;;;;;;6276244;28;20098;-63
2022/08/29 06:55:10;;;;;;;8.70;6.10;;;;;;;;;;6275079;28;20063;-64
2022/08/29 06:58:12;;;;;;;7.30;5.68;;;;;;;;;;6278749;28;20048;-64
2022/08/29 07:01:16;;;;;;;7.43;5.60;;;;;;;;;;6277185;28;20045;-64
2022/08/29 07:04:18;;;;;;;10.00;5.85;;;;;;;;;;6276060;28;20123;-64
2022/08/29 07:07:20;;;;;;;11.73;5.88;;;;;;;;;;6276563;28;20052;-65
2022/08/29 07:10:21;;;;;;;7.45;5.53;;;;;;;;;;6277166;28;20423;-64
2022/08/29 07:13:23;;;;;;;9.52;6.40;;;;;;;;;;6275471;28;20068;-65
2022/08/29 07:16:26;;;;;;;7.50;4.80;;;;;;;;;;6276566;28;20243;-65
2022/08/29 07:19:28;;;;;;;7.90;5.68;;;;;;;;;;6278601;28;20318;-63
2022/08/29 07:22:30;;;;;;;8.82;5.63;;;;;;;;;;6276493;28;20044;-64
2022/08/29 07:25:31;;;;;;;7.05;5.28;;;;;;;;;;6274488;28;20286;-64
2022/08/29 07:28:33;;;;;;;6.85;5.05;;;;;;;;;;6275833;28;20048;-66
2022/08/29 07:31:37;;;;;;;5.82;5.10;;;;;;;;;;6277267;28;20053;-63
2022/08/29 07:34:39;;;;;;;8.65;5.25;;;;;;;;;;6276106;28;20060;-66
2022/08/29 07:37:41;;;;;;;6.80;4.68;;;;;;;;;;6278599;28;20061;-65
2022/08/29 07:40:42;;;;;;;7.05;6.07;;;;;;;;;;6276898;28;20045;-63
2022/08/29 07:43:44;;;;;;;7.65;5.10;;;;;;;;;;6275822;28;20044;-67
2022/08/29 07:46:47;;;;;;;6.88;4.82;;;;;;;;;;6277332;28;20049;-66
2022/08/29 07:49:49;;;;;;;8.73;6.55;;;;;;;;;;6276055;28;20095;-63
2022/08/29 07:52:51;;;;;;;11.18;5.20;;;;;;;;;;6279774;28;20052;-66
2022/08/29 07:55:52;;;;;;;7.78;6.13;;;;;;;;;;6280631;28;20091;-63
2022/08/29 07:58:55;;;;;;;7.15;6.13;;;;;;;;;;6281233;28;20049;-65
2022/08/29 08:01:58;;;;;;;8.52;5.97;;;;;;;;;;6279229;28;20053;-65
2022/08/29 08:04:59;;;;;;;6.55;5.30;;;;;;;;;;6276642;28;20094;-65
2022/08/29 08:08:01;;;;;;;8.77;6.07;;;;;;;;;;6277092;28;20060;-66
2022/08/29 08:11:04;;;;;;;8.57;6.70;;;;;;;;;;6275446;28;20049;-64
2022/08/29 08:14:05;;;;;;;6.45;5.53;;;;;;;;;;6279603;28;20048;-66
2022/08/29 08:17:09;;;;;;;7.40;4.97;;;;;;;;;;6280005;28;20163;-66
2022/08/29 08:20:11;;;;;;;10.55;4.63;;;;;;;;;;6280739;28;20052;-64
2022/08/29 08:23:13;;;;;;;7.82;6.10;;;;;;;;;;6281222;28;20110;-67
2022/08/29 08:26:16;;;;;;;6.65;5.65;;;;;;;;;;6281160;28;20057;-66
2022/08/29 08:29:17;;;;;;;8.18;4.97;;;;;;;;;;6281818;28;20276;-64
2022/08/29 08:32:20;;;;;;;6.78;5.25;;;;;;;;;;6280367;28;20201;-65
2022/08/29 08:35:22;;;;;;;6.47;5.50;;;;;;;;;;6280424;28;20060;-65
2022/08/29 08:38:24;;;;;;;7.27;5.83;;;;;;;;;;6280899;28;20071;-64
2022/08/29 08:41:48;;;;;;;7.30;5.43;;;;;;;;;;6281407;28;20061;-65
2022/08/29 08:44:59;;;;;;;9.13;5.75;;;;;;;;;;6278591;28;20040;-65
2022/08/29 08:48:06;;;;;;;9.48;4.95;;;;;;;;;;6279283;28;20426;-65
2022/08/29 08:51:15;;;;;;;6.80;6.07;;;;;;;;;;6279018;28;20391;-67
2022/08/29 08:54:22;;;;;;;7.25;5.95;;;;;;;;;;6277743;28;20056;-67
2022/08/29 08:57:25;;;;;;;9.32;6.18;;;;;;;;;;6281562;28;20048;-64
2022/08/29 09:00:30;;;;;;;5.55;4.97;;;;;;;;;;6279282;28;20129;-66
2022/08/29 09:04:05;;;;;;;8.10;5.47;;;;;;;;;;6278960;28;20112;-65
2022/08/29 09:07:18;;;;;;;10.10;7.38;;;;;;;;;;6279671;28;20041;-66
2022/08/29 09:10:30;;;;;;;8.57;6.78;;;;;;;;;;6279807;28;20057;-65
2022/08/29 09:13:38;;;;;;;10.73;6.20;;;;;;;;;;6279350;28;20218;-66
2022/08/29 09:16:43;;;;;;;7.38;5.32;;;;;;;;;;6277719;28;20053;-68
2022/08/29 09:19:47;;;;;;;6.95;5.80;;;;;;;;;;6279420;28;20104;-69
2022/08/29 09:22:55;;;;;;;5.97;4.43;;;;;;;;;;6278505;28;20087;-65
2022/08/29 09:25:57;;;;;;;7.82;5.03;;;;;;;;;;6278535;28;20049;-67
2022/08/29 09:28:58;;;;;;;9.25;4.80;;;;;;;;;;6279568;28;20067;-65
2022/08/29 09:32:07;;;;;;;5.28;4.40;;;;;;;;;;6278276;28;20057;-66
2022/08/29 09:35:23;;;;;;;6.15;4.35;;;;;;;;;;6278175;28;20296;-67
2022/08/29 09:38:26;;;;;;;7.82;5.90;;;;;;;;;;6276452;28;20052;-66
2022/08/29 09:41:28;;;;;;;10.63;5.15;;;;;;;;;;6278941;28;20046;-68
2022/08/29 09:44:30;;;;;;;;;;;;;;;;;;6280382;28;20053;-65
2022/08/29 09:47:32;;;;;;;11.38;5.97;;;;;;;;;;6278322;28;19923;-66
2022/08/29 09:50:35;;;;;;;7.78;5.25;;;;;;;;;;6276941;28;20044;-66
2022/08/29 09:53:37;;;;;;;6.25;5.38;;;;;;;;;;6276426;28;20059;-66
2022/08/29 09:56:47;;;;;;;6.43;5.32;;;;;;;;;;6279817;28;20049;-66
2022/08/29 09:59:51;;;;;;;5.32;4.55;;;;;;;;;;6277445;28;20156;-67
2022/08/29 10:02:54;;;;;;;7.45;5.20;;;;;;;;;;6278264;28;20175;-66
2022/08/29 10:06:07;;;;;;;9.85;5.55;;;;;;;;;;6277278;28;20064;-70
2022/08/29 10:09:11;;;;;;;5.97;4.88;;;;;;;;;;6277686;28;20103;-66
2022/08/29 10:12:15;;;;;;;8.70;6.18;;;;;;;;;;6277983;28;20061;-66
2022/08/29 10:15:21;;;;;;;7.00;5.35;;;;;;;;;;6276520;28;20086;-67
2022/08/29 10:18:28;;;;;;;7.20;4.82;;;;;;;;;;6277132;28;20064;-67
2022/08/29 10:21:36;;;;;;;7.63;4.78;;;;;;;;;;6276556;28;20063;-67
2022/08/29 10:24:53;;;;;;;6.32;4.82;;;;;;;;;;6274985;28;20045;-65
2022/08/29 10:28:00;;;;;;;6.40;5.40;;;;;;;;;;6274079;28;20060;-68
2022/08/29 10:31:07;;;;;;;8.13;5.38;;;;;;;;;;6276394;28;20071;-69
2022/08/29 10:34:19;;;;;;;5.20;4.70;;;;;;;;;;6274815;28;20046;-66
2022/08/29 10:37:31;;;;;;;6.65;5.22;;;;;;;;;;6278940;28;20052;-65
2022/08/29 10:40:41;;;;;;;5.25;4.53;;;;;;;;;;6278199;28;20274;-66
2022/08/29 10:43:45;;;;;;;5.82;4.63;;;;;;;;;;6277270;28;20373;-66
2022/08/29 10:46:56;;;;;;;6.30;3.58;;;;;;;;;;6275353;28;20045;-66
2022/08/29 10:50:09;;;;;;;5.35;4.35;;;;;;;;;;6276528;28;20319;-67
2022/08/29 10:53:15;;;;;;;5.32;3.55;;;;;;;;;;6275573;28;20049;-69
2022/08/29 10:56:21;;;;;;;4.88;4.38;;;;;;;;;;6276356;28;20324;-67
2022/08/29 10:59:36;;;;;;;8.18;5.93;;;;;;;;;;6278469;28;20539;-64
2022/08/29 11:02:47;;;;;;;6.78;4.70;;;;;;;;;;6277326;28;20461;-67
2022/08/29 11:05:54;;;;;;;5.25;4.38;;;;;;;;;;6274590;28;20151;-67
2022/08/29 11:09:09;;;;;;;5.45;4.00;;;;;;;;;;6273937;28;20332;-66
2022/08/29 11:12:16;;;;;;;6.93;3.47;;;;;;;;;;6274392;28;20294;-67
2022/08/29 11:15:20;;;;;;;5.38;3.30;;;;;;;;;;6275811;28;20072;-70
2022/08/29 11:18:25;;;;;;;3.85;3.38;;;;;;;;;;6277148;28;20112;-67
2022/08/29 11:21:35;;;;;;;3.80;3.33;;;;;;;;;;6278707;28;20052;-67
2022/08/29 11:24:40;;;;;;;8.32;3.63;;;;;;;;;;6276231;28;20232;-71
2022/08/29 11:27:51;;;;;;;5.35;3.20;;;;;;;;;;6274878;28;20052;-67
2022/08/29 11:30:57;;;;;;;3.58;3.28;;;;;;;;;;6276103;28;20056;-64
2022/08/29 11:34:17;;;;;;;6.60;3.63;;;;;;;;;;6274631;28;20060;-68
2022/08/29 11:38:10;;;;;;;7.57;3.20;;;;;;;;;;6278411;28;20053;-67
2022/08/29 11:41:22;;;;;;;4.82;3.10;;;;;;;;;;6201520;28;20050;-70
2022/08/29 11:44:27;;;;;;;4.47;3.17;;;;;;;;;;6199377;28;20097;-71
2022/08/29 11:47:39;;;;;;;5.53;3.08;;;;;;;;;;6201581;28;20046;-67
2022/08/29 11:50:41;;;;;;;6.40;3.70;;;;;;;;;;6204297;28;20046;-66
2022/08/29 11:53:42;;;;;;;7.35;4.50;;;;;;;;;;6201539;28;20050;-66
2022/08/29 11:56:45;;;;;;;6.43;3.88;;;;;;;;;;6205109;28;20341;-67
2022/08/29 11:59:57;;;;;;;6.35;3.67;;;;;;;;;;6203363;28;20057;-69
2022/08/29 12:02:59;;;;;;;4.72;3.30;;;;;;;;;;6204672;28;20050;-67
2022/08/29 12:06:02;;;;;;;4.10;3.33;;;;;;;;;;6204244;28;20069;-67
2022/08/29 12:09:17;;;;;;;;;;;;;;;;;;6209376;28;20050;-67
2022/08/29 12:12:40;;;;;;;6.63;3.70;;;;;;;;;;6207100;28;19924;-66
2022/08/29 12:15:53;;;;;;;5.13;3.15;;;;;;;;;;6229498;28;20064;-66
2022/08/29 12:18:56;;;;;;;4.47;3.70;;;;;;;;;;6280918;28;20049;-66
2022/08/29 12:21:57;;;;;;;4.70;3.70;;;;;;;;;;6280874;28;20120;-65
2022/08/29 12:25:30;;;;;;;4.57;3.75;;;;;;;;;;6280998;28;20049;-64
2022/08/29 12:28:44;;;;;;;5.28;3.17;;;;;;;;;;6280302;28;20243;-65
2022/08/29 12:32:05;;;;;;;6.13;3.50;;;;;;;;;;6278017;28;20103;-66
2022/08/29 12:35:34;;;;;;;4.45;3.08;;;;;;;;;;6279020;28;20053;-66
2022/08/29 12:38:43;;;;;;;4.28;3.60;;;;;;;;;;6279359;28;20053;-66
2022/08/29 12:41:57;;;;;;;6.80;3.38;;;;;;;;;;6279477;28;20053;-66
2022/08/29 12:45:04;;;;;;;5.00;3.70;;;;;;;;;;6280192;28;20048;-66
2022/08/29 12:48:08;;;;;;;6.28;3.47;;;;;;;;;;6277916;28;20315;-66
2022/08/29 12:51:09;;;;;;;6.63;3.75;;;;;;;;;;6279205;28;20048;-66
2022/08/29 12:54:11;;;;;;;;;;;;;;;;;;6280548;28;20053;-66
2022/08/29 12:57:18;;;;;;;5.03;3.33;;;;;;;;;;6278957;28;19963;-65
2022/08/29 13:00:24;;;;;;;3.55;3.10;;;;;;;;;;6277951;28;20049;-65
2022/08/29 13:03:26;;;;;;;7.57;3.15;;;;;;;;;;6279615;28;20163;-66
2022/08/29 13:06:27;;;;;;;6.47;3.15;;;;;;;;;;6279627;28;20393;-66
2022/08/29 13:09:30;;;;;;;;;;;;;;;;;;6280176;28;20319;-70
2022/08/29 13:12:33;;;;;;;4.07;3.30;;;;;;;;;;6279416;28;19917;-66
2022/08/29 13:15:36;;;;;;;4.93;3.05;;;;;;;;;;6279035;28;20060;-65
2022/08/29 13:18:38;;;;;;;5.97;3.17;;;;;;;;;;6278970;28;20056;-67
2022/08/29 13:21:39;;;;;;;;;;;;;;;;;;6280923;28;20057;-65
2022/08/29 13:24:41;;;;;;;3.42;2.65;;;;;;;;;;6277986;28;20235;-68
2022/08/29 13:27:42;;;;;;;5.22;3.42;;;;;;;;;;6280128;28;20339;-68
2022/08/29 13:30:45;;;;;;;5.00;2.65;;;;;;;;;;6278987;28;20041;-68
2022/08/29 13:34:18;;;;;;;3.63;2.90;;;;;;;;;;6279364;28;20057;-67
2022/08/29 13:37:28;;;;;;;4.05;2.70;;;;;;;;;;6280769;28;20056;-65
2022/08/29 13:40:35;;;;;;;3.95;3.10;;;;;;;;;;6279932;28;20049;-65
2022/08/29 13:43:40;;;;;;;3.03;2.72;;;;;;;;;;6278326;28;20120;-65
2022/08/29 13:46:45;;;;;;;5.38;2.42;;;;;;;;;;6276912;28;20112;-71
2022/08/29 13:49:47;;;;;;;16.35;3.30;;;;;;;;;;6277888;28;20232;-67
2022/08/29 13:52:50;;;;;;;;;;;;;;;;;;6278192;28;20370;-64
2022/08/29 13:55:52;;;;;;;6.07;2.20;;;;;;;;;;6279845;28;19924;-67
2022/08/29 13:58:53;;;;;;;2.58;2.15;;;;;;;;;;6278804;28;20045;-67
2022/08/29 14:01:57;;;;;;;5.10;2.30;;;;;;;;;;6278254;28;20283;-66
2022/08/29 14:04:59;;;;;;;3.22;2.30;;;;;;;;;;6278937;28;20052;-66
2022/08/29 14:08:00;;;;;;;;;;;;;;;;;;6277626;28;20057;-67
2022/08/29 14:11:02;;;;;;;3.77;2.50;;;;;;;;;;6277852;28;19924;-66
2022/08/29 14:14:03;;;;;;;3.67;2.72;;;;;;;;;;6278157;28;20328;-67
2022/08/29 14:17:06;;;;;;;2.90;2.22;;;;;;;;;;6276680;28;20063;-69
2022/08/29 14:20:09;;;;;;;4.05;2.20;;;;;;;;;;6277837;28;20275;-65
2022/08/29 14:23:11;;;;;;;2.95;2.10;;;;;;;;;;6278103;28;20281;-65
2022/08/29 14:26:12;;;;;;;3.50;2.20;;;;;;;;;;6277851;28;20087;-65
2022/08/29 14:29:14;;;;;;;5.35;2.10;;;;;;;;;;6278273;28;20044;-66
2022/08/29 14:32:17;;;;;;;2.45;2.25;;;;;;;;;;6277524;28;20328;-67
2022/08/29 14:35:19;;;;;;;3.33;2.03;;;;;;;;;;6277838;28;20057;-65
2022/08/29 14:38:21;;;;;;;5.38;2.13;;;;;;;;;;6276689;28;20048;-66
2022/08/29 14:41:24;;;;;;;3.15;2.35;;;;;;;;;;6278858;28;20056;-65
2022/08/29 14:44:26;;;;;;;6.78;2.20;;;;;;;;;;6278317;28;20056;-65
2022/08/29 14:47:28;;;;;;;;;;;;;;;;;;6276551;28;20411;-65
2022/08/29 14:50:30;;;;;;;3.80;2.10;;;;;;;;;;6276284;28;19930;-66
2022/08/29 14:53:32;;;;;;;2.33;2.10;;;;;;;;;;6275972;28;20045;-69
2022/08/29 14:56:34;;;;;;;3.67;2.20;;;;;;;;;;6278243;28;20053;-69
2022/08/29 14:59:35;;;;;;;2.97;2.22;;;;;;;;;;6276128;28;20075;-66
2022/08/29 15:02:39;;;;;;;3.20;2.28;;;;;;;;;;6277065;28;20094;-67
2022/08/29 15:05:42;;;;;;;4.10;2.10;;;;;;;;;;6275880;28;20060;-65
2022/08/29 15:08:44;;;;;;;3.05;2.38;;;;;;;;;;6276174;28;20110;-66
2022/08/29 15:11:45;;;;;;;2.83;2.33;;;;;;;;;;6276008;28;20056;-66
2022/08/29 15:14:47;;;;;;;3.78;2.20;;;;;;;;;;6276625;28;20052;-68
2022/08/29 15:17:50;;;;;;;;;;;;;;;;;;6277364;28;20048;-67
2022/08/29 15:20:51;;;;;;;2.30;2.10;;;;;;;;;;6275346;28;19917;-68
2022/08/29 15:23:53;;;;;;;4.90;2.38;;;;;;;;;;6275604;28;20098;-70
2022/08/29 15:26:55;;;;;;;5.50;2.00;;;;;;;;;;6275510;28;20336;-66
2022/08/29 15:29:56;;;;;;;5.20;2.47;;;;;;;;;;6274768;28;20095;-64
2022/08/29 15:32:59;;;;;;;;;;;;;;;;;;6277044;28;20086;-66
2022/08/29 15:36:01;;;;;;;3.00;2.55;;;;;;;;;;6276853;28;20155;-66
2022/08/29 15:39:04;;;;;;;3.22;2.28;;;;;;;;;;6275387;28;20056;-66
2022/08/29 15:42:09;;;;;;;3.78;2.60;;;;;;;;;;6274897;28;20052;-67
2022/08/29 15:45:11;;;;;;;4.65;2.53;;;;;;;;;;6274798;28;20075;-69
2022/08/29 15:48:14;;;;;;;6.30;2.42;;;;;;;;;;6276141;28;20052;-65
2022/08/29 15:51:16;;;;;;;2.50;2.30;;;;;;;;;;6275820;28;20331;-67
2022/08/29 15:54:17;;;;;;;4.22;2.45;;;;;;;;;;6275143;28;20056;-65
2022/08/29 15:57:20;;;;;;;4.22;2.78;;;;;;;;;;6277524;28;20339;-65
2022/08/29 16:00:24;;;;;;;4.28;2.40;;;;;;;;;;6275096;28;20052;-66
2022/08/29 16:03:27;;;;;;;5.20;2.70;;;;;;;;;;6277077;28;20049;-64
2022/08/29 16:06:29;;;;;;;5.22;2.42;;;;;;;;;;6276203;28;20049;-66
2022/08/29 16:09:31;;;;;;;4.47;2.47;;;;;;;;;;6275796;28;20048;-69
2022/08/29 16:12:32;;;;;;;5.10;2.40;;;;;;;;;;6277380;28;20041;-64
2022/08/29 16:15:34;;;;;;;4.82;2.15;;;;;;;;;;6275925;28;20056;-66
2022/08/29 16:18:37;;;;;;;2.50;2.25;;;;;;;;;;6274718;28;20076;-66
2022/08/29 16:21:39;;;;;;;3.05;2.40;;;;;;;;;;6278040;28;20091;-66
2022/08/29 16:24:40;;;;;;;3.80;2.42;;;;;;;;;;6281236;28;20556;-67
2022/08/29 16:27:42;;;;;;;2.33;2.13;;;;;;;;;;6278311;28;20052;-66
2022/08/29 16:30:44;;;;;;;3.90;2.47;;;;;;;;;;6279918;28;20055;-67
2022/08/29 16:33:47;;;;;;;5.50;2.47;;;;;;;;;;6277078;28;20095;-68
2022/08/29 16:36:49;;;;;;;9.32;2.60;;;;;;;;;;6279272;28;20045;-65
2022/08/29 16:39:50;;;;;;;3.47;2.40;;;;;;;;;;6280029;28;20106;-67
2022/08/29 16:42:52;;;;;;;3.27;2.30;;;;;;;;;;6280195;28;20517;-66
2022/08/29 16:45:53;;;;;;;4.07;2.30;;;;;;;;;;6278302;28;20045;-69
2022/08/29 16:48:56;;;;;;;7.53;2.70;;;;;;;;;;6277569;28;20049;-65
2022/08/29 16:51:58;;;;;;;4.50;2.60;;;;;;;;;;6276111;28;20053;-65
2022/08/29 16:55:00;;;;;;;3.90;2.63;;;;;;;;;;6278263;28;20354;-65
2022/08/29 17:01:20;;;;;;;3.78;2.20;;;;;;;;;;6279247;28;20049;-67
2022/08/29 17:04:26;;;;;;;5.67;2.60;;;;;;;;;;6278680;28;20065;-64
2022/08/29 17:16:36;;;;;;;2.72;2.30;;;;;;;;;;6278263;28;20087;-64
2022/08/29 17:19:39;;;;;;;4.25;2.70;;;;;;;;;;6278451;28;20049;-66
2022/08/29 17:22:40;;;;;;;2.83;2.50;;;;;;;;;;6276327;28;20110;-66
2022/08/29 17:25:42;;;;;;;2.50;2.30;;;;;;;;;;6277409;28;20056;-66
2022/08/29 17:28:45;;;;;;;5.30;2.50;;;;;;;;;;6276664;28;20644;-66
2022/08/29 17:31:47;;;;;;;3.15;2.38;;;;;;;;;;6277724;28;20053;-65
2022/08/29 17:34:50;;;;;;;3.45;2.30;;;;;;;;;;6276472;28;20056;-65
2022/08/29 17:37:52;;;;;;;4.13;2.47;;;;;;;;;;6278184;28;20076;-65
2022/08/29 17:40:55;;;;;;;3.75;2.60;;;;;;;;;;6278932;28;20095;-66
2022/08/29 17:43:57;;;;;;;3.20;2.17;;;;;;;;;;6275366;28;20076;-69
2022/08/29 17:46:59;;;;;;;4.95;2.42;;;;;;;;;;6278781;28;20044;-67
2022/08/29 17:50:03;;;;;;;4.82;2.45;;;;;;;;;;6278124;28;20155;-65
2022/08/29 17:53:04;;;;;;;3.47;2.10;;;;;;;;;;6277626;28;20053;-66
2022/08/29 17:56:14;;;;;;;3.65;2.15;;;;;;;;;;6279889;28;20052;-65
2022/08/29 17:59:17;;;;;;;2.33;2.13;;;;;;;;;;6277901;28;20045;-65
2022/08/29 18:02:18;;;;;;;3.80;2.50;;;;;;;;;;6276146;28;20123;-65
2022/08/29 18:05:21;;;;;;;3.45;2.65;;;;;;;;;;6278329;28;20048;-67
2022/08/29 18:08:23;;;;;;;4.38;2.78;;;;;;;;;;6276983;28;20383;-65
2022/08/29 18:11:24;;;;;;;3.50;2.75;;;;;;;;;;6277567;28;20053;-65
2022/08/29 18:14:27;;;;;;;4.50;3.00;;;;;;;;;;6277014;28;20044;-65
2022/08/29 18:17:30;;;;;;;3.15;2.63;;;;;;;;;;6278050;28;20053;-65
2022/08/29 18:20:33;;;;;;;3.28;2.90;;;;;;;;;;6277269;28;20087;-65
2022/08/29 18:23:36;;;;;;;7.30;2.70;;;;;;;;;;6276074;28;20049;-65
2022/08/29 18:26:37;;;;;;;3.08;2.42;;;;;;;;;;6275239;28;20052;-65
2022/08/29 18:29:39;;;;;;;5.25;3.45;;;;;;;;;;6275056;28;20056;-65
2022/08/29 18:32:41;;;;;;;4.57;2.70;;;;;;;;;;6275703;28;20573;-65
2022/08/29 18:35:44;;;;;;;4.15;2.80;;;;;;;;;;6278766;28;20398;-64
2022/08/29 18:38:45;;;;;;;4.93;2.90;;;;;;;;;;6279863;28;20086;-64
2022/08/29 18:41:47;;;;;;;4.70;2.97;;;;;;;;;;6281387;28;20048;-65
2022/08/29 18:44:49;;;;;;;7.47;3.70;;;;;;;;;;6279110;28;20099;-64